Sunset Valley, Texas
Current Conditions -  °F | °C
As of 6:53 AM on Sunday 23 Nov 2014 (Local Time) from KAUS Reporting Station
Few Clouds Few Clouds  
Wind Chill: 54°   Ceiling: Unl
Heat Index: 54°   Visibility: 10mi
Dew Point: 54°   Wind: 10mph
Humidity: 100%   Direction: 250°WSW
Pressure: 29.67"   Gusts: NA
Location:  30.2064°N, 97.7973°W
Report Text: KAUS 231253Z 25009KT 10SM FEW010 FEW060 12/12 A2967 RMK AO2 SLP043 T01220122 $
Loading
Personal Weather Stations






























Interactive Weather Map New forecast layout! Learn more

10-Day Weather Forecast

Advertisements
Track Severe Weather on mobile